Time;durP1;ratioP1;P1;durP2;ratioP2;P2;SDS_P1;SDS_P2;PMS_P1;PMS_P2;Temp;Humidity;BMP_temperature;BMP_pressure;BME280_temperature;BME280_humidity;BME280_pressure;Samples;Min_cycle;Max_cycle;Signal;HPM_P1;HPM_P2
2021/06/21 00:00:25;;;;;;;14.77;12.90;;;23.50;1.00;;;;;;4943524;29;20189;-57
2021/06/21 00:02:51;;;;;;;14.80;12.87;;;23.60;1.00;;;;;;4934152;29;20281;-57
2021/06/21 00:05:17;;;;;;;14.53;13.23;;;23.50;1.00;;;;;;4933788;29;21248;-54
2021/06/21 00:07:43;;;;;;;14.53;13.10;;;23.50;1.00;;;;;;4931732;29;20441;-57
2021/06/21 00:10:11;;;;;;;14.20;12.80;;;23.50;1.00;;;;;;4932187;29;20460;-55
2021/06/21 00:12:39;;;;;;;15.40;13.70;;;23.50;1.00;;;;;;4931093;29;20542;-55
2021/06/21 00:15:05;;;;;;;16.87;15.27;;;23.50;1.00;;;;;;4938814;29;20441;-55
2021/06/21 00:17:30;;;;;;;16.87;15.13;;;23.50;1.00;;;;;;4944361;28;20519;-55
2021/06/21 00:19:56;;;;;;;17.13;15.53;;;23.50;1.00;;;;;;4949116;28;20448;-54
2021/06/21 00:22:22;;;;;;;20.70;18.23;;;23.50;1.00;;;;;;4946412;29;20198;-58
2021/06/21 00:24:47;;;;;;;18.47;16.87;;;23.40;1.00;;;;;;4935583;29;20550;-57
2021/06/21 00:27:13;;;;;;;17.20;15.43;;;23.40;1.00;;;;;;4937747;28;20194;-55
2021/06/21 00:29:39;;;;;;;18.13;16.43;;;23.50;1.00;;;;;;4941792;29;20280;-53
2021/06/21 00:32:05;;;;;;;18.70;16.63;;;23.50;1.00;;;;;;4944084;29;20190;-56
2021/06/21 00:34:31;;;;;;;18.40;15.90;;;23.60;1.00;;;;;;4942927;29;20208;-54
2021/06/21 00:36:57;;;;;;;17.13;14.80;;;23.70;1.00;;;;;;4937843;28;20986;-54
2021/06/21 00:39:22;;;;;;;18.53;15.33;;;23.70;1.00;;;;;;4937313;28;20445;-55
2021/06/21 00:41:48;;;;;;;19.10;17.10;;;23.80;1.00;;;;;;4946326;29;20549;-57
2021/06/21 00:44:14;;;;;;;18.50;16.77;;;23.80;1.00;;;;;;4939490;29;20200;-55
2021/06/21 00:46:39;;;;;;;18.37;16.40;;;23.80;1.00;;;;;;4951367;29;20691;-56
2021/06/21 00:49:05;;;;;;;19.93;17.53;;;23.80;1.00;;;;;;4941921;29;20177;-57
2021/06/21 00:51:32;;;;;;;19.53;17.80;;;23.80;1.00;;;;;;4944616;29;20200;-57
2021/06/21 00:53:57;;;;;;;18.67;16.80;;;23.90;1.00;;;;;;4935021;29;20190;-55
2021/06/21 00:56:24;;;;;;;18.93;17.30;;;23.90;1.00;;;;;;4938843;29;20476;-57
2021/06/21 00:58:52;;;;;;;18.87;17.17;;;23.90;1.00;;;;;;4945490;29;20177;-56
2021/06/21 01:01:18;;;;;;;19.33;17.20;;;24.00;1.00;;;;;;4945479;28;20437;-58
2021/06/21 01:03:43;;;;;;;20.60;18.47;;;24.10;1.00;;;;;;4941084;29;20440;-57
2021/06/21 01:06:09;;;;;;;21.50;18.10;;;24.10;1.00;;;;;;4934609;29;20649;-57
2021/06/21 01:08:34;;;;;;;20.37;18.00;;;24.20;1.00;;;;;;4939311;29;20207;-51
2021/06/21 01:11:00;;;;;;;22.43;20.20;;;24.30;1.00;;;;;;4937999;29;20193;-57
2021/06/21 01:13:47;;;;;;;21.20;19.30;;;24.30;1.00;;;;;;4934581;29;20190;-57
2021/06/21 01:16:30;;;;;;;20.63;18.53;;;24.20;1.00;;;;;;4933702;29;20248;-57
2021/06/21 01:19:27;;;;;;;20.90;18.80;;;24.00;1.00;;;;;;4943393;28;20628;-55
2021/06/21 01:22:06;;;;;;;21.20;19.00;;;24.00;1.00;;;;;;4951313;28;20440;-55
2021/06/21 01:25:01;;;;;;;19.83;17.97;;;23.90;1.00;;;;;;4934441;29;20442;-58
2021/06/21 01:28:03;;;;;;;21.37;18.37;;;23.90;1.00;;;;;;4943973;29;20452;-58
2021/06/21 01:30:37;;;;;;;19.77;17.87;;;23.90;1.00;;;;;;4941666;29;20429;-55
2021/06/21 01:33:05;;;;;;;19.50;17.63;;;23.90;1.00;;;;;;4933252;29;20434;-57
2021/06/21 01:35:36;;;;;;;19.90;18.10;;;23.90;1.00;;;;;;4946530;28;20448;-55
2021/06/21 01:38:07;;;;;;;19.60;17.70;;;23.80;1.00;;;;;;4946395;29;20880;-57
2021/06/21 01:40:40;;;;;;;20.30;18.40;;;23.90;1.00;;;;;;4936047;29;20449;-56
2021/06/21 01:43:09;;;;;;;19.20;17.57;;;23.90;1.00;;;;;;4934275;29;20524;-55
2021/06/21 01:45:36;;;;;;;20.07;18.17;;;24.00;1.00;;;;;;4939655;29;20473;-57
2021/06/21 01:48:02;;;;;;;19.03;17.13;;;24.00;1.00;;;;;;4933604;29;20442;-57
2021/06/21 01:50:29;;;;;;;20.03;18.03;;;24.00;1.00;;;;;;4939800;28;20948;-57
2021/06/21 01:53:01;;;;;;;20.03;18.10;;;24.00;1.00;;;;;;4933481;29;20425;-58
2021/06/21 01:55:30;;;;;;;20.10;18.00;;;24.00;1.00;;;;;;4946247;29;21298;-56
2021/06/21 01:57:58;;;;;;;19.73;17.80;;;24.00;1.00;;;;;;4940215;29;20481;-56
2021/06/21 02:00:24;;;;;;;19.40;17.40;;;24.00;1.00;;;;;;4944296;29;20432;-59
2021/06/21 02:02:52;;;;;;;17.27;15.37;;;24.00;1.00;;;;;;4939508;29;20938;-52
2021/06/21 02:05:18;;;;;;;14.97;13.20;;;24.00;1.00;;;;;;4937554;29;20932;-55
2021/06/21 02:07:47;;;;;;;14.83;12.20;;;24.10;99.90;;;;;;4937942;28;20436;-58
2021/06/21 02:10:13;;;;;;;12.73;11.53;;;24.20;99.90;;;;;;4944803;29;20532;-54
2021/06/21 02:12:40;;;;;;;10.57;9.57;;;24.30;1.00;;;;;;4934103;29;20439;-56
2021/06/21 02:15:08;;;;;;;9.40;8.50;;;24.20;99.90;;;;;;4947198;29;20445;-55
2021/06/21 02:17:35;;;;;;;10.07;7.43;;;24.20;55.10;;;;;;4944846;29;20576;-56
2021/06/21 02:20:01;;;;;;;7.70;6.10;;;24.20;99.90;;;;;;4939162;29;20445;-56
2021/06/21 02:22:29;;;;;;;9.90;6.50;;;24.10;99.90;;;;;;4934232;29;20444;-56
2021/06/21 02:25:00;;;;;;;8.03;7.23;;;24.10;38.10;;;;;;4950139;29;20523;-57
2021/06/21 02:27:25;;;;;;;10.20;7.13;;;24.10;99.90;;;;;;4940916;29;20478;-54
2021/06/21 02:29:54;;;;;;;8.13;7.27;;;24.00;1.00;;;;;;4948663;29;20710;-55
2021/06/21 02:32:20;;;;;;;7.30;6.70;;;23.90;49.70;;;;;;4949999;29;20644;-55
2021/06/21 02:34:46;;;;;;;8.23;7.27;;;23.90;99.90;;;;;;4948749;29;20445;-57
2021/06/21 02:37:12;;;;;;;7.30;6.20;;;23.80;99.90;;;;;;4951830;29;20448;-58
2021/06/21 02:39:38;;;;;;;6.70;6.10;;;23.80;99.90;;;;;;4950282;28;20445;-55
2021/06/21 02:42:04;;;;;;;7.57;6.90;;;23.70;99.90;;;;;;4939737;29;20820;-56
2021/06/21 02:44:30;;;;;;;12.03;7.13;;;23.70;1.00;;;;;;4939512;29;20436;-56
2021/06/21 02:46:56;;;;;;;12.17;7.07;;;23.70;1.00;;;;;;4942029;29;20825;-56
2021/06/21 02:49:22;;;;;;;7.83;6.80;;;23.70;1.00;;;;;;4941472;29;20197;-57
2021/06/21 02:52:02;;;;;;;7.30;6.40;;;23.60;1.00;;;;;;4951480;29;20240;-56
2021/06/21 02:54:49;;;;;;;9.40;7.67;;;23.60;1.00;;;;;;4934291;28;20205;-54
2021/06/21 02:57:20;;;;;;;8.87;7.57;;;23.60;28.10;;;;;;4951686;28;20464;-56
2021/06/21 02:59:47;;;;;;;8.17;7.30;;;23.50;99.90;;;;;;4943632;29;20444;-55
2021/06/21 03:02:15;;;;;;;9.50;6.80;;;23.50;99.90;;;;;;4940005;29;20537;-58
2021/06/21 03:04:44;;;;;;;7.87;6.93;;;23.50;99.90;;;;;;4938606;29;20436;-57
2021/06/21 03:07:13;;;;;;;10.43;7.90;;;23.40;1.00;;;;;;4947656;29;20535;-55
2021/06/21 03:09:42;;;;;;;13.03;7.30;;;23.40;1.00;;;;;;4946277;29;20931;-57
2021/06/21 03:12:09;;;;;;;10.60;7.83;;;23.30;1.00;;;;;;4938727;29;20920;-57
2021/06/21 03:14:35;;;;;;;8.50;7.30;;;23.30;1.00;;;;;;4936616;29;20456;-53
2021/06/21 03:17:06;;;;;;;9.30;7.40;;;23.30;1.00;;;;;;4932239;29;20464;-56
2021/06/21 03:19:32;;;;;;;11.27;7.70;;;23.30;1.00;;;;;;4932011;29;20576;-53
2021/06/21 03:21:58;;;;;;;7.97;7.17;;;23.30;1.00;;;;;;4948627;29;20441;-58
2021/06/21 03:24:25;;;;;;;7.93;6.90;;;23.20;1.00;;;;;;4950425;29;21079;-54
2021/06/21 03:26:51;;;;;;;7.50;6.80;;;23.20;1.00;;;;;;4948929;29;20221;-53
2021/06/21 03:29:21;;;;;;;9.47;7.30;;;23.20;1.00;;;;;;4949249;29;20869;-52
2021/06/21 03:31:50;;;;;;;8.60;7.10;;;23.20;1.00;;;;;;4951464;29;20452;-53
2021/06/21 03:34:17;;;;;;;8.00;7.20;;;23.20;1.00;;;;;;4948832;29;20479;-57
2021/06/21 03:36:43;;;;;;;11.97;6.50;;;23.10;1.00;;;;;;4945916;29;20473;-56
2021/06/21 03:39:09;;;;;;;11.80;7.13;;;23.00;26.70;;;;;;4927230;29;20452;-55
2021/06/21 03:41:36;;;;;;;9.00;7.43;;;23.00;99.90;;;;;;4947714;29;20436;-53
2021/06/21 03:44:02;;;;;;;11.47;7.23;;;23.00;99.90;;;;;;4936110;29;20181;-52
2021/06/21 03:46:29;;;;;;;10.03;6.97;;;23.00;99.90;;;;;;4933599;29;20485;-57
2021/06/21 03:48:54;;;;;;;9.30;6.63;;;23.10;67.00;;;;;;4938498;29;20468;-57
2021/06/21 03:51:21;;;;;;;8.03;7.17;;;23.20;67.90;;;;;;4953579;28;20440;-55
2021/06/21 03:53:47;;;;;;;10.30;7.10;;;23.30;86.40;;;;;;4960586;28;20190;-56
2021/06/21 03:56:12;;;;;;;8.40;7.60;;;23.30;81.00;;;;;;4953052;28;20480;-56
2021/06/21 03:58:38;;;;;;;8.30;6.20;;;23.20;93.30;;;;;;4941215;29;20629;-56
2021/06/21 04:01:04;;;;;;;10.63;6.83;;;23.20;99.30;;;;;;4938655;29;20189;-57
2021/06/21 04:03:29;;;;;;;11.30;6.07;;;23.20;99.90;;;;;;4935635;29;20190;-57
2021/06/21 04:05:55;;;;;;;10.17;7.90;;;23.20;99.90;;;;;;4939040;29;20181;-49
2021/06/21 04:08:21;;;;;;;10.80;7.17;;;23.10;99.90;;;;;;4945977;29;20199;-56
2021/06/21 04:10:48;;;;;;;9.43;6.70;;;23.20;99.90;;;;;;4933433;29;20653;-57
2021/06/21 04:13:15;;;;;;;11.70;7.40;;;23.20;99.90;;;;;;4939345;29;20189;-56
2021/06/21 04:15:41;;;;;;;8.40;7.50;;;23.20;99.90;;;;;;4928593;29;20469;-55
2021/06/21 04:18:10;;;;;;;7.43;6.73;;;23.10;99.90;;;;;;4929179;29;20847;-55
2021/06/21 04:20:37;;;;;;;8.50;6.97;;;23.10;99.90;;;;;;4929227;29;20520;-54
2021/06/21 04:23:04;;;;;;;7.90;6.87;;;23.10;99.90;;;;;;4937203;29;20496;-57
2021/06/21 04:25:29;;;;;;;7.67;6.83;;;23.20;99.90;;;;;;4928139;29;20469;-58
2021/06/21 04:27:55;;;;;;;8.37;7.57;;;23.10;99.90;;;;;;4933619;29;20445;-54
2021/06/21 04:30:23;;;;;;;9.47;7.20;;;23.10;99.90;;;;;;4934550;29;20209;-56
2021/06/21 04:32:49;;;;;;;8.30;7.50;;;23.10;99.90;;;;;;4930322;29;20185;-58
2021/06/21 04:35:18;;;;;;;12.10;7.23;;;23.00;99.90;;;;;;4934086;29;20453;-54
2021/06/21 04:37:43;;;;;;;8.20;7.30;;;22.90;99.90;;;;;;4929122;29;20483;-54
2021/06/21 04:40:11;;;;;;;9.40;8.00;;;22.90;99.90;;;;;;4926205;29;20457;-55
2021/06/21 04:42:37;;;;;;;12.03;7.97;;;22.90;99.90;;;;;;4926563;29;20288;-56
2021/06/21 04:45:03;;;;;;;10.03;7.37;;;22.90;99.90;;;;;;4938017;29;20982;-53
2021/06/21 04:47:29;;;;;;;9.50;7.30;;;22.90;99.90;;;;;;4935056;29;20190;-53
2021/06/21 04:49:56;;;;;;;12.10;8.40;;;23.00;99.90;;;;;;4934500;29;20432;-54
2021/06/21 04:52:28;;;;;;;10.63;7.53;;;23.00;99.90;;;;;;4937064;28;20204;-51
2021/06/21 04:55:00;;;;;;;8.47;7.67;;;23.00;99.90;;;;;;4957294;28;20425;-55
2021/06/21 04:57:26;;;;;;;12.47;7.93;;;23.10;99.90;;;;;;4953207;29;20475;-55
2021/06/21 04:59:51;;;;;;;10.07;8.10;;;23.20;99.90;;;;;;4952328;29;20417;-58
2021/06/21 05:02:17;;;;;;;12.53;8.27;;;23.30;99.90;;;;;;4950008;29;20224;-55
2021/06/21 05:04:42;;;;;;;9.77;8.80;;;23.30;99.90;;;;;;4952889;28;20185;-57
2021/06/21 05:07:09;;;;;;;9.37;8.47;;;23.40;99.90;;;;;;4953402;29;20181;-51
2021/06/21 05:09:34;;;;;;;10.50;8.50;;;23.40;99.90;;;;;;4935637;29;20181;-54
2021/06/21 05:12:01;;;;;;;10.13;8.20;;;23.30;99.90;;;;;;4952300;29;20441;-55
2021/06/21 05:14:27;;;;;;;18.33;9.60;;;23.40;99.90;;;;;;4952399;29;20180;-54
2021/06/21 05:16:52;;;;;;;10.37;9.40;;;23.50;99.90;;;;;;4951039;29;20469;-53
2021/06/21 05:19:18;;;;;;;12.80;9.40;;;23.60;99.90;;;;;;4939605;29;20221;-56
2021/06/21 05:21:43;;;;;;;11.63;10.43;;;23.70;99.90;;;;;;4935539;28;20190;-52
2021/06/21 05:24:09;;;;;;;11.30;10.30;;;23.80;99.90;;;;;;4934116;29;20185;-53
2021/06/21 05:26:35;;;;;;;14.57;11.37;;;24.00;99.90;;;;;;4933852;29;20188;-55
2021/06/21 05:29:00;;;;;;;12.20;11.00;;;24.10;46.70;;;;;;4933231;29;20311;-53
2021/06/21 05:31:26;;;;;;;15.10;12.40;;;24.30;1.00;;;;;;4934142;29;20185;-51
2021/06/21 05:33:51;;;;;;;12.43;10.70;;;24.10;1.50;;;;;;4937204;29;20555;-57
2021/06/21 05:36:17;;;;;;;12.40;10.90;;;24.10;56.90;;;;;;4952915;29;20272;-56
2021/06/21 05:38:42;;;;;;;13.27;12.00;;;24.20;99.90;;;;;;4952936;29;20193;-57
2021/06/21 05:41:08;;;;;;;13.20;11.80;;;24.30;45.80;;;;;;4935515;29;20189;-55
2021/06/21 05:43:33;;;;;;;13.63;12.33;;;24.50;1.00;;;;;;4949203;29;20196;-58
2021/06/21 05:45:59;;;;;;;14.80;12.20;;;24.70;1.00;;;;;;4953153;29;20177;-58
2021/06/21 05:48:24;;;;;;;14.43;12.20;;;24.90;1.00;;;;;;4938162;29;20190;-57
2021/06/21 05:50:51;;;;;;;14.53;12.57;;;25.00;1.00;;;;;;4932635;29;20732;-58
2021/06/21 05:53:17;;;;;;;17.73;12.73;;;25.10;1.00;;;;;;4946518;28;20549;-57
2021/06/21 05:55:43;;;;;;;13.37;11.40;;;25.40;99.90;;;;;;4936891;29;20852;-58
2021/06/21 05:58:08;;;;;;;13.60;12.27;;;25.60;1.00;;;;;;4940794;28;20449;-58
2021/06/21 06:00:34;;;;;;;13.10;11.90;;;25.60;1.00;;;;;;4946065;28;20558;-58
2021/06/21 06:03:00;;;;;;;12.27;11.13;;;25.50;99.90;;;;;;4951602;28;20177;-58
2021/06/21 06:05:26;;;;;;;12.53;11.27;;;25.60;1.00;;;;;;4952007;29;20185;-57
2021/06/21 06:07:52;;;;;;;13.27;11.47;;;25.60;99.90;;;;;;4939284;29;20184;-57
2021/06/21 06:10:18;;;;;;;12.73;11.33;;;25.70;56.40;;;;;;4951663;29;20433;-58
2021/06/21 06:12:43;;;;;;;13.50;11.50;;;26.00;1.00;;;;;;4950420;29;20196;-58
2021/06/21 06:15:11;;;;;;;13.27;12.13;;;26.20;99.90;;;;;;4936183;29;20430;-57
2021/06/21 06:17:36;;;;;;;12.50;11.53;;;26.20;1.00;;;;;;4945844;29;20539;-58
2021/06/21 06:20:03;;;;;;;12.67;11.57;;;26.30;1.00;;;;;;4939958;29;21090;-58
2021/06/21 06:22:29;;;;;;;14.87;12.77;;;26.40;99.90;;;;;;4951664;29;20617;-59
2021/06/21 06:24:54;;;;;;;13.30;12.10;;;26.40;1.00;;;;;;4938448;29;20425;-59
2021/06/21 06:27:20;;;;;;;13.00;11.80;;;26.20;1.00;;;;;;4951203;29;20192;-59
2021/06/21 06:29:45;;;;;;;13.03;11.70;;;26.40;61.80;;;;;;4949179;29;20636;-59
2021/06/21 06:32:11;;;;;;;13.70;12.50;;;26.70;6.50;;;;;;4951366;29;20187;-58
2021/06/21 06:34:36;;;;;;;13.77;12.50;;;26.90;99.90;;;;;;4948169;29;20195;-59
2021/06/21 06:37:02;;;;;;;15.23;12.73;;;27.10;73.20;;;;;;4948582;29;20283;-59
2021/06/21 06:39:28;;;;;;;13.47;12.20;;;27.20;99.90;;;;;;4947091;29;20208;-60
2021/06/21 06:41:53;;;;;;;13.20;12.10;;;27.30;1.00;;;;;;4943225;29;20182;-58
2021/06/21 06:44:20;;;;;;;13.87;12.47;;;27.40;99.90;;;;;;4931852;29;20228;-59
2021/06/21 06:46:46;;;;;;;17.87;13.13;;;27.40;99.90;;;;;;4930004;29;20177;-59
2021/06/21 06:49:11;;;;;;;14.27;13.00;;;27.40;99.90;;;;;;4935105;28;20477;-59
2021/06/21 06:51:54;;;;;;;14.70;13.23;;;27.50;99.90;;;;;;4932402;29;20712;-59
2021/06/21 06:54:23;;;;;;;14.70;13.40;;;27.50;99.90;;;;;;4932126;29;20181;-59
2021/06/21 06:56:59;;;;;;;14.00;12.60;;;27.60;1.00;;;;;;4936590;29;20524;-60
2021/06/21 06:59:32;;;;;;;13.27;12.17;;;27.70;1.00;;;;;;4937752;29;20748;-59
2021/06/21 07:01:59;;;;;;;13.70;12.60;;;27.60;1.00;;;;;;4949258;29;20791;-60
2021/06/21 07:04:25;;;;;;;14.40;12.93;;;27.50;99.90;;;;;;4937509;29;20420;-59
2021/06/21 07:06:51;;;;;;;13.77;12.67;;;27.20;99.90;;;;;;4950144;29;21061;-59
2021/06/21 07:09:18;;;;;;;13.27;11.73;;;27.20;99.90;;;;;;4933994;29;20455;-58
2021/06/21 07:11:45;;;;;;;12.73;11.53;;;27.00;99.90;;;;;;4932506;29;20438;-59
2021/06/21 07:14:11;;;;;;;16.20;11.23;;;26.90;99.90;;;;;;4933883;29;20429;-59
2021/06/21 07:16:37;;;;;;;13.73;12.37;;;26.90;99.90;;;;;;4932523;29;20819;-59
2021/06/21 07:19:03;;;;;;;12.13;10.90;;;27.00;99.90;;;;;;4949302;29;20224;-59
2021/06/21 07:21:28;;;;;;;12.10;10.97;;;27.00;99.90;;;;;;4943039;29;20417;-59
2021/06/21 07:23:54;;;;;;;14.20;10.97;;;27.00;99.90;;;;;;4942460;29;20189;-59
2021/06/21 07:26:20;;;;;;;12.40;10.40;;;27.00;99.90;;;;;;4949478;28;20203;-59
2021/06/21 07:28:45;;;;;;;13.50;11.30;;;27.20;99.90;;;;;;4950542;29;20233;-59
2021/06/21 07:31:11;;;;;;;12.30;11.00;;;27.30;99.90;;;;;;4949957;29;20624;-60
2021/06/21 07:33:38;;;;;;;11.93;10.83;;;27.20;99.90;;;;;;4953960;29;20189;-59
2021/06/21 07:36:04;;;;;;;12.30;9.93;;;27.30;42.60;;;;;;4949641;29;20177;-59
2021/06/21 07:38:30;;;;;;;10.87;9.70;;;27.30;90.40;;;;;;4949656;29;21108;-59
2021/06/21 07:40:55;;;;;;;11.20;10.10;;;27.30;94.30;;;;;;4954007;29;20181;-60
2021/06/21 07:43:21;;;;;;;12.93;11.23;;;27.30;11.20;;;;;;4951452;29;20213;-59
2021/06/21 07:45:47;;;;;;;19.23;10.77;;;27.40;7.80;;;;;;4952667;29;20551;-59
2021/06/21 07:48:13;;;;;;;13.27;10.90;;;27.40;46.50;;;;;;4953167;28;20218;-60
2021/06/21 07:50:39;;;;;;;10.93;9.87;;;27.50;1.00;;;;;;4946469;29;20499;-59
2021/06/21 07:53:06;;;;;;;14.73;10.67;;;27.70;1.00;;;;;;4937282;28;20551;-59
2021/06/21 07:55:33;;;;;;;11.00;10.10;;;28.00;1.00;;;;;;4935405;29;20967;-57
2021/06/21 07:57:59;;;;;;;11.03;9.87;;;28.30;1.00;;;;;;4917957;29;20475;-50
2021/06/21 08:00:25;;;;;;;14.10;10.63;;;28.60;99.90;;;;;;4949644;28;20440;-59
2021/06/21 08:02:52;;;;;;;8.80;7.90;;;28.70;99.90;;;;;;4949200;28;20181;-59
2021/06/21 08:05:19;;;;;;;10.90;8.33;;;28.90;99.90;;;;;;4950568;29;20420;-59
2021/06/21 08:07:45;;;;;;;10.73;9.73;;;29.00;99.90;;;;;;4951648;29;20903;-59
2021/06/21 08:10:11;;;;;;;12.67;9.03;;;29.10;99.90;;;;;;4953266;29;20428;-60
2021/06/21 08:12:37;;;;;;;11.03;9.13;;;29.10;99.90;;;;;;4948547;29;20260;-59
2021/06/21 08:15:05;;;;;;;14.23;9.13;;;29.10;99.90;;;;;;4952660;29;20436;-60
2021/06/21 08:17:30;;;;;;;11.40;8.50;;;29.10;59.60;;;;;;4948678;29;20472;-59
2021/06/21 08:19:56;;;;;;;10.23;9.30;;;29.20;17.90;;;;;;4949341;29;20958;-57
2021/06/21 08:22:22;;;;;;;10.90;9.37;;;29.30;1.00;;;;;;4934533;29;20190;-60
2021/06/21 08:24:51;;;;;;;9.83;8.83;;;29.30;1.00;;;;;;4935087;29;20186;-60
2021/06/21 08:27:18;;;;;;;8.97;8.00;;;29.20;1.00;;;;;;4935157;29;20838;-60
2021/06/21 08:29:44;;;;;;;11.07;8.93;;;29.30;1.00;;;;;;4945768;29;20444;-60
2021/06/21 08:32:11;;;;;;;9.03;8.10;;;29.00;1.00;;;;;;4937116;28;20484;-60
2021/06/21 08:34:37;;;;;;;9.17;8.37;;;29.10;1.00;;;;;;4934346;29;20912;-60
2021/06/21 08:37:02;;;;;;;11.33;8.00;;;29.20;1.00;;;;;;4938762;29;20462;-60
2021/06/21 08:39:28;;;;;;;9.33;7.87;;;29.40;1.00;;;;;;4933899;28;20554;-59
2021/06/21 08:41:54;;;;;;;8.55;7.80;;;29.60;1.00;;;;;;4941952;29;20196;-60
2021/06/21 08:44:20;;;;;;;10.90;8.10;;;29.80;1.00;;;;;;4953598;29;20188;-59
2021/06/21 08:46:50;;;;;;;8.27;7.67;;;30.00;1.00;;;;;;4947739;29;20433;-60
2021/06/21 08:49:18;;;;;;;8.63;7.20;;;30.10;1.00;;;;;;4933651;29;20865;-60
2021/06/21 08:51:45;;;;;;;9.70;7.60;;;30.30;1.00;;;;;;4932615;29;20440;-59
2021/06/21 08:54:10;;;;;;;8.50;7.60;;;30.40;1.00;;;;;;4933960;29;20426;-60
2021/06/21 08:56:36;;;;;;;8.17;7.47;;;30.50;1.00;;;;;;4935857;29;20455;-60
2021/06/21 08:59:08;;;;;;;8.43;6.70;;;30.50;1.00;;;;;;4950852;28;20178;-59
2021/06/21 09:01:39;;;;;;;8.07;6.90;;;30.60;1.00;;;;;;4952289;29;20177;-60
2021/06/21 09:04:09;;;;;;;9.00;6.80;;;30.70;1.00;;;;;;4949795;29;20433;-60
2021/06/21 09:06:37;;;;;;;7.37;6.57;;;30.90;1.00;;;;;;4952189;29;20439;-59
2021/06/21 09:09:04;;;;;;;7.03;6.30;;;30.90;1.00;;;;;;4953126;28;20431;-59
2021/06/21 09:11:44;;;;;;;8.17;7.57;;;31.30;1.00;;;;;;4953010;28;20413;-59
2021/06/21 09:14:25;;;;;;;8.40;7.60;;;31.30;1.00;;;;;;4952131;29;20436;-59
2021/06/21 09:17:11;;;;;;;8.30;7.50;;;31.50;1.00;;;;;;4952796;29;20995;-58
2021/06/21 09:19:53;;;;;;;8.83;7.20;;;31.80;1.00;;;;;;4951440;29;20511;-58
2021/06/21 09:22:37;;;;;;;8.40;7.60;;;32.00;1.00;;;;;;4953008;29;20495;-57
2021/06/21 09:25:25;;;;;;;8.63;7.20;;;32.20;1.00;;;;;;4952881;29;20801;-58
2021/06/21 09:28:06;;;;;;;9.43;7.93;;;32.30;99.90;;;;;;4951878;29;20460;-59
2021/06/21 09:30:47;;;;;;;9.10;8.20;;;32.60;99.90;;;;;;4948744;28;20432;-59
2021/06/21 09:33:28;;;;;;;8.47;7.60;;;32.60;99.90;;;;;;4943590;28;20448;-58
2021/06/21 09:35:53;;;;;;;8.33;7.63;;;32.80;99.90;;;;;;4944564;29;20453;-59
2021/06/21 09:38:20;;;;;;;8.97;8.07;;;33.20;99.90;;;;;;4949474;29;20464;-59
2021/06/21 09:40:51;;;;;;;9.77;7.93;;;33.70;99.90;;;;;;4935668;29;20214;-59
2021/06/21 09:43:35;;;;;;;8.03;7.23;;;33.90;99.90;;;;;;4936811;28;20429;-59
2021/06/21 09:46:12;;;;;;;8.00;7.20;;;34.20;99.90;;;;;;4934458;29;20505;-59
2021/06/21 09:48:53;;;;;;;7.63;6.77;;;34.40;99.90;;;;;;4936347;28;20805;-58
2021/06/21 09:51:23;;;;;;;8.70;7.20;;;34.90;99.90;;;;;;4934941;29;20428;-59
2021/06/21 09:54:00;;;;;;;8.10;7.30;;;35.20;99.90;;;;;;4935404;29;20426;-58
2021/06/21 09:56:36;;;;;;;8.10;7.20;;;35.50;99.90;;;;;;4934901;29;20468;-59
2021/06/21 09:59:15;;;;;;;8.20;7.40;;;35.70;99.90;;;;;;4943263;29;20447;-57
2021/06/21 10:01:40;;;;;;;8.60;7.07;;;36.20;99.90;;;;;;4934878;29;20425;-58
2021/06/21 10:04:21;;;;;;;9.60;7.20;;;36.90;99.90;;;;;;4934943;29;20796;-58
2021/06/21 10:06:48;;;;;;;8.07;6.90;;;37.10;99.90;;;;;;4941231;29;20189;-60
2021/06/21 10:09:13;;;;;;;10.03;6.50;;;37.20;99.90;;;;;;4935259;29;20422;-59
2021/06/21 10:11:45;;;;;;;7.40;6.77;;;37.10;99.90;;;;;;4934744;29;20436;-59
2021/06/21 10:14:18;;;;;;;8.70;6.50;;;37.80;99.90;;;;;;4934488;29;20186;-58
2021/06/21 10:16:47;;;;;;;11.00;6.30;;;38.40;99.90;;;;;;4945996;29;20877;-59
2021/06/21 10:19:14;;;;;;;6.00;5.50;;;38.70;99.90;;;;;;4917600;29;20477;-58
2021/06/21 10:21:44;;;;;;;6.82;5.20;;;38.80;99.90;;;;;;4933455;29;20444;-59
2021/06/21 10:24:11;;;;;;;7.23;5.43;;;38.60;99.90;;;;;;4951055;29;20192;-56
2021/06/21 10:26:42;;;;;;;9.63;5.60;;;38.90;99.90;;;;;;4921579;29;20438;-59
2021/06/21 10:29:08;;;;;;;6.30;5.70;;;39.40;99.90;;;;;;4944761;28;20473;-57
2021/06/21 10:31:35;;;;;;;5.63;5.20;;;39.40;99.90;;;;;;4955792;28;21227;-58
2021/06/21 10:34:05;;;;;;;5.77;4.80;;;40.00;99.90;;;;;;4950032;28;20194;-59
2021/06/21 10:36:52;;;;;;;8.83;5.60;;;40.40;99.90;;;;;;4935453;29;20687;-59
2021/06/21 10:39:26;;;;;;;5.37;4.97;;;40.10;99.90;;;;;;4931559;29;20409;-59
2021/06/21 10:42:04;;;;;;;5.90;4.80;;;39.80;99.90;;;;;;4936878;29;20430;-58
2021/06/21 10:44:50;;;;;;;6.93;4.70;;;38.60;99.90;;;;;;4932732;29;20420;-58
2021/06/21 10:47:43;;;;;;;5.07;4.33;;;37.60;99.90;;;;;;4933952;28;20959;-58
2021/06/21 10:50:21;;;;;;;4.87;4.30;;;37.00;99.90;;;;;;4944606;29;20432;-59
2021/06/21 10:52:50;;;;;;;5.97;4.53;;;36.10;99.90;;;;;;4951035;29;20503;-58
2021/06/21 10:55:32;;;;;;;5.17;4.73;;;35.60;99.90;;;;;;4936825;29;20802;-58
2021/06/21 10:58:04;;;;;;;5.77;4.63;;;35.00;99.90;;;;;;4941361;29;20563;-57
2021/06/21 11:00:42;;;;;;;6.57;5.37;;;34.70;99.90;;;;;;4931723;29;20509;-58
2021/06/21 11:03:23;;;;;;;6.93;4.97;;;34.60;99.90;;;;;;4917668;29;20501;-58
2021/06/21 11:05:51;;;;;;;6.67;4.87;;;34.30;99.90;;;;;;4929869;29;20426;-59
2021/06/21 11:08:19;;;;;;;5.53;4.70;;;34.30;99.90;;;;;;4938982;29;20452;-59
2021/06/21 11:10:50;;;;;;;6.03;4.40;;;34.40;99.90;;;;;;4940851;29;20931;-59
2021/06/21 11:16:18;;;;;;;5.43;4.97;;;33.80;99.90;;;;;;4937025;29;20822;-60
2021/06/21 11:18:46;;;;;;;8.07;4.50;;;33.70;99.90;;;;;;4914555;29;20508;-60
2021/06/21 11:21:17;;;;;;;7.60;4.23;;;33.70;99.90;;;;;;4929942;29;20414;-60
2021/06/21 11:23:53;;;;;;;5.37;4.87;;;33.80;99.90;;;;;;4930432;29;20410;-58
2021/06/21 11:26:19;;;;;;;7.83;4.80;;;33.90;99.90;;;;;;4929739;29;20464;-58
2021/06/21 11:28:47;;;;;;;6.03;4.70;;;34.00;99.90;;;;;;4931605;29;20453;-61
2021/06/21 11:31:20;;;;;;;4.47;4.00;;;34.30;99.90;;;;;;4930030;29;20277;-60
2021/06/21 11:33:51;;;;;;;4.70;4.20;;;34.30;99.90;;;;;;4932873;28;20444;-60
2021/06/21 11:36:37;;;;;;;5.00;4.63;;;34.40;99.90;;;;;;4947540;29;20464;-59
2021/06/21 11:39:21;;;;;;;5.37;4.87;;;34.50;99.90;;;;;;4948348;28;20416;-59
2021/06/21 11:42:02;;;;;;;6.07;5.03;;;34.70;99.90;;;;;;4935557;29;20418;-57
2021/06/21 11:44:40;;;;;;;5.20;4.80;;;34.80;99.90;;;;;;4950227;29;20420;-56
2021/06/21 11:47:22;;;;;;;4.90;4.50;;;34.70;99.90;;;;;;4951950;28;20427;-59
2021/06/21 11:49:54;;;;;;;5.13;4.73;;;34.80;99.90;;;;;;4944987;28;20475;-61
2021/06/21 11:52:22;;;;;;;7.07;5.20;;;34.90;99.90;;;;;;4942983;28;20430;-59
2021/06/21 11:54:49;;;;;;;6.33;5.27;;;35.00;99.90;;;;;;4945845;29;20504;-58
2021/06/21 11:57:17;;;;;;;6.47;4.90;;;35.00;99.90;;;;;;4949799;29;20460;-60
2021/06/21 11:59:48;;;;;;;6.47;5.10;;;34.70;99.90;;;;;;4948852;29;20417;-58
2021/06/21 12:02:16;;;;;;;5.93;5.33;;;34.80;99.90;;;;;;4949757;29;20459;-58
2021/06/21 12:04:43;;;;;;;6.30;4.90;;;34.90;99.90;;;;;;4947136;29;20535;-59
2021/06/21 12:07:26;;;;;;;6.17;5.00;;;34.90;99.90;;;;;;4945087;29;20434;-59
2021/06/21 12:09:53;;;;;;;10.43;6.03;;;35.10;99.90;;;;;;4942546;29;20891;-60
2021/06/21 12:12:27;;;;;;;9.77;5.23;;;35.10;99.90;;;;;;4947669;28;20449;-60
2021/06/21 12:14:53;;;;;;;6.43;5.50;;;34.30;99.90;;;;;;4950829;29;21041;-59
2021/06/21 12:17:23;;;;;;;5.97;5.37;;;33.70;99.90;;;;;;4951192;28;21414;-58
2021/06/21 12:20:15;;;;;;;5.87;5.30;;;33.70;99.90;;;;;;4935204;29;20791;-59
2021/06/21 12:22:41;;;;;;;6.05;5.50;;;33.70;99.90;;;;;;4943481;29;20463;-60
2021/06/21 12:25:29;;;;;;;6.13;5.47;;;33.90;99.90;;;;;;4953521;29;20185;-58
2021/06/21 12:28:10;;;;;;;5.53;5.03;;;33.80;99.90;;;;;;4953215;29;20436;-60
2021/06/21 12:30:57;;;;;;;5.87;5.37;;;33.70;99.90;;;;;;4940410;29;20441;-59
2021/06/21 12:33:28;;;;;;;7.30;5.20;;;33.70;99.90;;;;;;4943799;29;20491;-59
2021/06/21 12:36:14;;;;;;;6.40;5.43;;;34.00;99.90;;;;;;4933678;29;20912;-59
2021/06/21 12:38:50;;;;;;;5.67;5.07;;;34.40;99.90;;;;;;4933053;29;21282;-59
2021/06/21 12:41:22;;;;;;;6.87;5.20;;;34.40;99.90;;;;;;4933024;29;20856;-60
2021/06/21 12:44:12;;;;;;;6.13;5.47;;;34.70;99.90;;;;;;4933102;29;20644;-60
2021/06/21 12:46:47;;;;;;;6.50;4.90;;;35.00;99.90;;;;;;4923523;29;20511;-59
2021/06/21 12:49:18;;;;;;;6.00;5.40;;;35.20;99.90;;;;;;4933132;29;20832;-59
2021/06/21 12:51:44;;;;;;;5.67;5.03;;;35.20;99.90;;;;;;4936063;28;20512;-59
2021/06/21 12:54:17;;;;;;;8.93;5.50;;;35.20;99.90;;;;;;4943893;28;20429;-60